sensor_id;sensor_type;location;lat;lon;timestamp;P1;durP1;ratioP1;P2;durP2;ratioP2
39958;SDS011;25639;53.634;9.880;2023-02-28T00:02:19;16.10;;;7.43;;
39958;SDS011;25639;53.634;9.880;2023-02-28T00:04:44;14.82;;;7.07;;
39958;SDS011;25639;53.634;9.880;2023-02-28T00:07:09;17.23;;;7.60;;
39958;SDS011;25639;53.634;9.880;2023-02-28T00:09:35;12.85;;;6.63;;
39958;SDS011;25639;53.634;9.880;2023-02-28T00:12:00;13.55;;;6.38;;
39958;SDS011;25639;53.634;9.880;2023-02-28T00:14:34;16.70;;;7.55;;
39958;SDS011;25639;53.634;9.880;2023-02-28T00:17:00;16.85;;;8.10;;
39958;SDS011;25639;53.634;9.880;2023-02-28T00:19:25;17.95;;;8.32;;
39958;SDS011;25639;53.634;9.880;2023-02-28T00:21:51;23.02;;;9.93;;
39958;SDS011;25639;53.634;9.880;2023-02-28T00:24:16;21.40;;;10.15;;
39958;SDS011;25639;53.634;9.880;2023-02-28T00:26:41;19.80;;;9.45;;
39958;SDS011;25639;53.634;9.880;2023-02-28T00:29:08;20.02;;;8.80;;
39958;SDS011;25639;53.634;9.880;2023-02-28T00:31:33;20.33;;;9.48;;
39958;SDS011;25639;53.634;9.880;2023-02-28T00:33:58;19.67;;;8.93;;
39958;SDS011;25639;53.634;9.880;2023-02-28T00:36:23;23.80;;;9.80;;
39958;SDS011;25639;53.634;9.880;2023-02-28T00:38:49;17.80;;;8.68;;
39958;SDS011;25639;53.634;9.880;2023-02-28T00:41:14;17.13;;;8.13;;
39958;SDS011;25639;53.634;9.880;2023-02-28T00:43:40;19.38;;;8.65;;
39958;SDS011;25639;53.634;9.880;2023-02-28T00:46:05;21.90;;;8.65;;
39958;SDS011;25639;53.634;9.880;2023-02-28T00:48:31;17.30;;;7.50;;
39958;SDS011;25639;53.634;9.880;2023-02-28T00:50:57;19.52;;;8.07;;
39958;SDS011;25639;53.634;9.880;2023-02-28T00:53:22;18.73;;;7.93;;
39958;SDS011;25639;53.634;9.880;2023-02-28T00:55:48;14.18;;;7.05;;
39958;SDS011;25639;53.634;9.880;2023-02-28T00:58:14;20.30;;;8.10;;
39958;SDS011;25639;53.634;9.880;2023-02-28T01:00:39;19.83;;;8.70;;
39958;SDS011;25639;53.634;9.880;2023-02-28T01:03:04;16.88;;;7.85;;
39958;SDS011;25639;53.634;9.880;2023-02-28T01:05:30;16.45;;;7.55;;
39958;SDS011;25639;53.634;9.880;2023-02-28T01:07:55;16.45;;;7.25;;
39958;SDS011;25639;53.634;9.880;2023-02-28T01:10:20;18.77;;;7.20;;
39958;SDS011;25639;53.634;9.880;2023-02-28T01:12:46;16.77;;;7.50;;
39958;SDS011;25639;53.634;9.880;2023-02-28T01:15:11;17.33;;;7.38;;
39958;SDS011;25639;53.634;9.880;2023-02-28T01:17:36;19.25;;;7.43;;
39958;SDS011;25639;53.634;9.880;2023-02-28T01:20:02;14.23;;;6.28;;
39958;SDS011;25639;53.634;9.880;2023-02-28T01:22:28;15.40;;;6.97;;
39958;SDS011;25639;53.634;9.880;2023-02-28T01:24:53;16.15;;;6.75;;
39958;SDS011;25639;53.634;9.880;2023-02-28T01:27:19;16.15;;;7.15;;
39958;SDS011;25639;53.634;9.880;2023-02-28T01:29:44;18.35;;;7.13;;
39958;SDS011;25639;53.634;9.880;2023-02-28T01:32:10;15.70;;;7.45;;
39958;SDS011;25639;53.634;9.880;2023-02-28T01:34:35;16.38;;;7.43;;
39958;SDS011;25639;53.634;9.880;2023-02-28T01:37:00;18.42;;;7.63;;
39958;SDS011;25639;53.634;9.880;2023-02-28T01:39:26;15.85;;;7.05;;
39958;SDS011;25639;53.634;9.880;2023-02-28T01:41:51;12.70;;;6.50;;
39958;SDS011;25639;53.634;9.880;2023-02-28T01:47:20;17.98;;;6.40;;
39958;SDS011;25639;53.634;9.880;2023-02-28T01:49:46;17.42;;;5.82;;
39958;SDS011;25639;53.634;9.880;2023-02-28T01:52:12;10.57;;;5.40;;
39958;SDS011;25639;53.634;9.880;2023-02-28T01:54:43;12.98;;;5.03;;
39958;SDS011;25639;53.634;9.880;2023-02-28T01:57:14;16.83;;;5.18;;
39958;SDS011;25639;53.634;9.880;2023-02-28T02:02:17;14.70;;;5.10;;
39958;SDS011;25639;53.634;9.880;2023-02-28T02:04:55;12.88;;;5.35;;
39958;SDS011;25639;53.634;9.880;2023-02-28T02:07:31;8.85;;;4.75;;
39958;SDS011;25639;53.634;9.880;2023-02-28T02:10:00;14.73;;;5.75;;
39958;SDS011;25639;53.634;9.880;2023-02-28T02:12:41;9.05;;;4.68;;
39958;SDS011;25639;53.634;9.880;2023-02-28T02:15:40;10.10;;;4.68;;
39958;SDS011;25639;53.634;9.880;2023-02-28T02:23:43;11.50;;;5.50;;
39958;SDS011;25639;53.634;9.880;2023-02-28T02:26:33;14.10;;;5.00;;
39958;SDS011;25639;53.634;9.880;2023-02-28T02:38:13;10.48;;;4.63;;
39958;SDS011;25639;53.634;9.880;2023-02-28T02:40:53;13.32;;;4.93;;
39958;SDS011;25639;53.634;9.880;2023-02-28T02:43:44;12.63;;;4.35;;
39958;SDS011;25639;53.634;9.880;2023-02-28T02:46:18;11.77;;;4.65;;
39958;SDS011;25639;53.634;9.880;2023-02-28T02:48:54;10.32;;;3.70;;
39958;SDS011;25639;53.634;9.880;2023-02-28T02:51:22;10.45;;;4.18;;
39958;SDS011;25639;53.634;9.880;2023-02-28T02:56:21;8.00;;;3.78;;
39958;SDS011;25639;53.634;9.880;2023-02-28T02:58:51;6.70;;;3.30;;
39958;SDS011;25639;53.634;9.880;2023-02-28T03:01:21;9.20;;;3.58;;
39958;SDS011;25639;53.634;9.880;2023-02-28T03:03:56;9.95;;;4.35;;
39958;SDS011;25639;53.634;9.880;2023-02-28T03:06:23;7.60;;;3.45;;
39958;SDS011;25639;53.634;9.880;2023-02-28T03:08:49;8.27;;;3.22;;
39958;SDS011;25639;53.634;9.880;2023-02-28T03:11:14;7.22;;;3.28;;
39958;SDS011;25639;53.634;9.880;2023-02-28T03:16:44;8.02;;;3.30;;
39958;SDS011;25639;53.634;9.880;2023-02-28T03:27:39;7.78;;;3.35;;
39958;SDS011;25639;53.634;9.880;2023-02-28T03:30:20;7.93;;;3.05;;
39958;SDS011;25639;53.634;9.880;2023-02-28T03:32:54;8.32;;;2.60;;
39958;SDS011;25639;53.634;9.880;2023-02-28T03:35:40;8.77;;;2.92;;
39958;SDS011;25639;53.634;9.880;2023-02-28T03:42:05;9.82;;;2.95;;
39958;SDS011;25639;53.634;9.880;2023-02-28T03:44:35;8.65;;;3.33;;
39958;SDS011;25639;53.634;9.880;2023-02-28T03:47:08;7.03;;;2.90;;
39958;SDS011;25639;53.634;9.880;2023-02-28T03:52:25;9.15;;;3.20;;
39958;SDS011;25639;53.634;9.880;2023-02-28T03:54:56;10.23;;;2.90;;
39958;SDS011;25639;53.634;9.880;2023-02-28T03:57:31;6.97;;;2.90;;
39958;SDS011;25639;53.634;9.880;2023-02-28T04:00:04;10.25;;;2.90;;
39958;SDS011;25639;53.634;9.880;2023-02-28T04:02:33;9.00;;;3.30;;
39958;SDS011;25639;53.634;9.880;2023-02-28T04:04:59;10.77;;;3.28;;
39958;SDS011;25639;53.634;9.880;2023-02-28T04:07:28;9.10;;;2.55;;
39958;SDS011;25639;53.634;9.880;2023-02-28T04:09:54;13.95;;;4.63;;
39958;SDS011;25639;53.634;9.880;2023-02-28T04:12:19;7.43;;;3.28;;
39958;SDS011;25639;53.634;9.880;2023-02-28T04:14:46;10.50;;;3.30;;
39958;SDS011;25639;53.634;9.880;2023-02-28T04:17:11;8.88;;;3.58;;
39958;SDS011;25639;53.634;9.880;2023-02-28T04:19:36;10.18;;;3.35;;
39958;SDS011;25639;53.634;9.880;2023-02-28T04:22:01;11.13;;;4.45;;
39958;SDS011;25639;53.634;9.880;2023-02-28T04:24:27;10.77;;;3.42;;
39958;SDS011;25639;53.634;9.880;2023-02-28T04:26:53;9.48;;;3.58;;
39958;SDS011;25639;53.634;9.880;2023-02-28T04:29:22;9.25;;;3.50;;
39958;SDS011;25639;53.634;9.880;2023-02-28T04:31:49;11.80;;;3.40;;
39958;SDS011;25639;53.634;9.880;2023-02-28T04:34:14;8.60;;;3.30;;
39958;SDS011;25639;53.634;9.880;2023-02-28T04:36:40;9.82;;;3.20;;
39958;SDS011;25639;53.634;9.880;2023-02-28T04:39:05;8.10;;;3.15;;
39958;SDS011;25639;53.634;9.880;2023-02-28T04:41:30;7.80;;;3.40;;
39958;SDS011;25639;53.634;9.880;2023-02-28T04:43:56;13.55;;;3.10;;
39958;SDS011;25639;53.634;9.880;2023-02-28T04:46:21;8.80;;;3.08;;
39958;SDS011;25639;53.634;9.880;2023-02-28T04:48:47;11.50;;;4.10;;
39958;SDS011;25639;53.634;9.880;2023-02-28T04:51:14;14.10;;;4.82;;
39958;SDS011;25639;53.634;9.880;2023-02-28T04:53:41;11.07;;;4.20;;
39958;SDS011;25639;53.634;9.880;2023-02-28T04:56:07;11.45;;;4.53;;
39958;SDS011;25639;53.634;9.880;2023-02-28T04:58:36;23.17;;;6.85;;
39958;SDS011;25639;53.634;9.880;2023-02-28T05:01:05;16.52;;;5.88;;
39958;SDS011;25639;53.634;9.880;2023-02-28T05:03:40;23.27;;;6.43;;
39958;SDS011;25639;53.634;9.880;2023-02-28T05:06:05;20.20;;;6.38;;
39958;SDS011;25639;53.634;9.880;2023-02-28T05:08:32;23.85;;;6.80;;
39958;SDS011;25639;53.634;9.880;2023-02-28T05:10:57;16.40;;;6.15;;
39958;SDS011;25639;53.634;9.880;2023-02-28T05:13:22;16.92;;;6.03;;
39958;SDS011;25639;53.634;9.880;2023-02-28T05:15:48;22.60;;;6.60;;
39958;SDS011;25639;53.634;9.880;2023-02-28T05:18:13;17.67;;;5.88;;
39958;SDS011;25639;53.634;9.880;2023-02-28T05:20:38;17.40;;;6.20;;
39958;SDS011;25639;53.634;9.880;2023-02-28T05:23:03;17.92;;;6.40;;
39958;SDS011;25639;53.634;9.880;2023-02-28T05:25:29;18.15;;;6.60;;
39958;SDS011;25639;53.634;9.880;2023-02-28T05:27:54;16.33;;;6.15;;
39958;SDS011;25639;53.634;9.880;2023-02-28T05:30:19;18.40;;;6.22;;
39958;SDS011;25639;53.634;9.880;2023-02-28T05:32:49;16.67;;;6.43;;
39958;SDS011;25639;53.634;9.880;2023-02-28T05:35:15;17.80;;;6.28;;
39958;SDS011;25639;53.634;9.880;2023-02-28T05:37:41;31.88;;;8.30;;
39958;SDS011;25639;53.634;9.880;2023-02-28T05:40:06;27.85;;;8.82;;
39958;SDS011;25639;53.634;9.880;2023-02-28T05:42:35;22.00;;;8.82;;
39958;SDS011;25639;53.634;9.880;2023-02-28T05:45:00;26.45;;;8.05;;
39958;SDS011;25639;53.634;9.880;2023-02-28T05:47:26;21.08;;;7.75;;
39958;SDS011;25639;53.634;9.880;2023-02-28T05:49:51;25.48;;;9.02;;
39958;SDS011;25639;53.634;9.880;2023-02-28T05:52:16;22.23;;;8.23;;
39958;SDS011;25639;53.634;9.880;2023-02-28T05:54:42;28.60;;;8.15;;
39958;SDS011;25639;53.634;9.880;2023-02-28T05:57:08;25.58;;;9.73;;
39958;SDS011;25639;53.634;9.880;2023-02-28T05:59:33;29.27;;;10.07;;
39958;SDS011;25639;53.634;9.880;2023-02-28T06:01:58;28.35;;;10.15;;
39958;SDS011;25639;53.634;9.880;2023-02-28T06:04:23;27.15;;;10.52;;
39958;SDS011;25639;53.634;9.880;2023-02-28T06:06:49;32.45;;;10.07;;
39958;SDS011;25639;53.634;9.880;2023-02-28T06:09:15;31.27;;;10.35;;
39958;SDS011;25639;53.634;9.880;2023-02-28T06:11:41;35.45;;;11.55;;
39958;SDS011;25639;53.634;9.880;2023-02-28T06:14:07;36.97;;;13.43;;
39958;SDS011;25639;53.634;9.880;2023-02-28T06:16:37;36.20;;;12.63;;
39958;SDS011;25639;53.634;9.880;2023-02-28T06:19:03;44.60;;;12.90;;
39958;SDS011;25639;53.634;9.880;2023-02-28T06:21:29;37.00;;;13.52;;
39958;SDS011;25639;53.634;9.880;2023-02-28T06:23:55;50.10;;;14.13;;
39958;SDS011;25639;53.634;9.880;2023-02-28T06:26:22;45.40;;;13.68;;
39958;SDS011;25639;53.634;9.880;2023-02-28T06:28:48;37.10;;;12.48;;
39958;SDS011;25639;53.634;9.880;2023-02-28T06:31:14;42.58;;;12.73;;
39958;SDS011;25639;53.634;9.880;2023-02-28T06:33:41;38.88;;;13.05;;
39958;SDS011;25639;53.634;9.880;2023-02-28T06:36:08;45.25;;;13.93;;
39958;SDS011;25639;53.634;9.880;2023-02-28T06:38:34;36.97;;;12.50;;
39958;SDS011;25639;53.634;9.880;2023-02-28T06:41:00;37.72;;;13.15;;
39958;SDS011;25639;53.634;9.880;2023-02-28T06:43:27;36.72;;;13.10;;
39958;SDS011;25639;53.634;9.880;2023-02-28T06:45:54;38.83;;;13.48;;
39958;SDS011;25639;53.634;9.880;2023-02-28T06:48:21;41.60;;;13.60;;
39958;SDS011;25639;53.634;9.880;2023-02-28T06:50:47;33.08;;;13.10;;
39958;SDS011;25639;53.634;9.880;2023-02-28T06:53:12;50.75;;;14.57;;
39958;SDS011;25639;53.634;9.880;2023-02-28T06:55:38;43.10;;;15.05;;
39958;SDS011;25639;53.634;9.880;2023-02-28T06:58:04;37.45;;;12.65;;
39958;SDS011;25639;53.634;9.880;2023-02-28T07:00:39;42.03;;;14.30;;
39958;SDS011;25639;53.634;9.880;2023-02-28T07:03:05;48.05;;;17.20;;
39958;SDS011;25639;53.634;9.880;2023-02-28T07:05:30;43.47;;;15.32;;
39958;SDS011;25639;53.634;9.880;2023-02-28T07:07:55;47.55;;;16.02;;
39958;SDS011;25639;53.634;9.880;2023-02-28T07:10:21;44.13;;;13.68;;
39958;SDS011;25639;53.634;9.880;2023-02-28T07:12:47;40.58;;;13.80;;
39958;SDS011;25639;53.634;9.880;2023-02-28T07:15:12;45.53;;;14.77;;
39958;SDS011;25639;53.634;9.880;2023-02-28T07:17:37;40.15;;;12.30;;
39958;SDS011;25639;53.634;9.880;2023-02-28T07:20:03;35.00;;;13.45;;
39958;SDS011;25639;53.634;9.880;2023-02-28T07:22:29;31.65;;;11.60;;
39958;SDS011;25639;53.634;9.880;2023-02-28T07:24:54;30.48;;;12.85;;
39958;SDS011;25639;53.634;9.880;2023-02-28T07:27:20;30.73;;;11.48;;
39958;SDS011;25639;53.634;9.880;2023-02-28T07:29:50;31.83;;;12.00;;
39958;SDS011;25639;53.634;9.880;2023-02-28T07:32:16;27.17;;;9.63;;
39958;SDS011;25639;53.634;9.880;2023-02-28T07:34:41;28.40;;;10.18;;
39958;SDS011;25639;53.634;9.880;2023-02-28T07:37:06;25.52;;;9.23;;
39958;SDS011;25639;53.634;9.880;2023-02-28T07:39:32;20.95;;;6.90;;
39958;SDS011;25639;53.634;9.880;2023-02-28T07:41:57;18.40;;;6.28;;
39958;SDS011;25639;53.634;9.880;2023-02-28T07:44:24;10.18;;;4.43;;
39958;SDS011;25639;53.634;9.880;2023-02-28T07:46:50;14.48;;;4.57;;
39958;SDS011;25639;53.634;9.880;2023-02-28T07:49:15;18.17;;;4.85;;
39958;SDS011;25639;53.634;9.880;2023-02-28T07:51:40;9.23;;;4.47;;
39958;SDS011;25639;53.634;9.880;2023-02-28T07:54:05;10.95;;;4.47;;
39958;SDS011;25639;53.634;9.880;2023-02-28T07:56:31;10.55;;;4.32;;
39958;SDS011;25639;53.634;9.880;2023-02-28T07:58:56;15.05;;;5.28;;
39958;SDS011;25639;53.634;9.880;2023-02-28T08:01:21;19.52;;;6.45;;
39958;SDS011;25639;53.634;9.880;2023-02-28T08:03:47;21.38;;;6.40;;
39958;SDS011;25639;53.634;9.880;2023-02-28T08:06:16;23.20;;;6.78;;
39958;SDS011;25639;53.634;9.880;2023-02-28T08:08:46;18.70;;;5.60;;
39958;SDS011;25639;53.634;9.880;2023-02-28T08:11:12;18.60;;;5.72;;
39958;SDS011;25639;53.634;9.880;2023-02-28T08:13:37;19.38;;;6.07;;
39958;SDS011;25639;53.634;9.880;2023-02-28T08:16:03;13.75;;;4.22;;
39958;SDS011;25639;53.634;9.880;2023-02-28T08:18:28;11.02;;;3.70;;
39958;SDS011;25639;53.634;9.880;2023-02-28T08:20:54;5.65;;;3.03;;
39958;SDS011;25639;53.634;9.880;2023-02-28T08:23:19;5.57;;;2.53;;
39958;SDS011;25639;53.634;9.880;2023-02-28T08:25:44;9.88;;;3.00;;
39958;SDS011;25639;53.634;9.880;2023-02-28T08:28:09;8.48;;;2.72;;
39958;SDS011;25639;53.634;9.880;2023-02-28T08:30:35;8.15;;;3.10;;
39958;SDS011;25639;53.634;9.880;2023-02-28T08:33:00;11.43;;;2.83;;
39958;SDS011;25639;53.634;9.880;2023-02-28T08:35:26;8.85;;;2.50;;
39958;SDS011;25639;53.634;9.880;2023-02-28T08:37:52;8.82;;;2.30;;
39958;SDS011;25639;53.634;9.880;2023-02-28T08:40:17;4.78;;;2.22;;
39958;SDS011;25639;53.634;9.880;2023-02-28T08:42:45;3.13;;;1.90;;
39958;SDS011;25639;53.634;9.880;2023-02-28T08:45:11;6.97;;;2.30;;
39958;SDS011;25639;53.634;9.880;2023-02-28T08:47:37;6.93;;;2.50;;
39958;SDS011;25639;53.634;9.880;2023-02-28T08:50:02;4.68;;;1.83;;
39958;SDS011;25639;53.634;9.880;2023-02-28T08:52:29;4.40;;;1.95;;
39958;SDS011;25639;53.634;9.880;2023-02-28T08:54:54;1.85;;;1.40;;
39958;SDS011;25639;53.634;9.880;2023-02-28T08:57:20;5.43;;;1.98;;
39958;SDS011;25639;53.634;9.880;2023-02-28T08:59:45;3.38;;;1.48;;
39958;SDS011;25639;53.634;9.880;2023-02-28T09:02:12;3.28;;;1.60;;
39958;SDS011;25639;53.634;9.880;2023-02-28T09:04:39;4.43;;;1.90;;
39958;SDS011;25639;53.634;9.880;2023-02-28T09:07:04;3.53;;;1.50;;
39958;SDS011;25639;53.634;9.880;2023-02-28T09:09:29;3.35;;;1.15;;
39958;SDS011;25639;53.634;9.880;2023-02-28T09:11:55;3.83;;;1.55;;
39958;SDS011;25639;53.634;9.880;2023-02-28T09:14:21;4.22;;;1.40;;
39958;SDS011;25639;53.634;9.880;2023-02-28T09:16:46;4.68;;;1.30;;
39958;SDS011;25639;53.634;9.880;2023-02-28T09:19:11;2.75;;;1.52;;
39958;SDS011;25639;53.634;9.880;2023-02-28T09:21:37;4.18;;;1.45;;
39958;SDS011;25639;53.634;9.880;2023-02-28T09:24:02;2.78;;;1.65;;
39958;SDS011;25639;53.634;9.880;2023-02-28T09:26:28;3.08;;;1.30;;
39958;SDS011;25639;53.634;9.880;2023-02-28T09:28:53;3.67;;;1.33;;
39958;SDS011;25639;53.634;9.880;2023-02-28T09:31:23;2.97;;;1.48;;
39958;SDS011;25639;53.634;9.880;2023-02-28T09:33:51;2.45;;;1.30;;
39958;SDS011;25639;53.634;9.880;2023-02-28T09:36:18;4.25;;;1.50;;
39958;SDS011;25639;53.634;9.880;2023-02-28T09:38:45;4.28;;;1.33;;
39958;SDS011;25639;53.634;9.880;2023-02-28T09:41:13;4.68;;;1.15;;
39958;SDS011;25639;53.634;9.880;2023-02-28T09:43:43;5.25;;;1.60;;
39958;SDS011;25639;53.634;9.880;2023-02-28T09:46:25;6.20;;;1.52;;
39958;SDS011;25639;53.634;9.880;2023-02-28T09:48:56;3.88;;;1.30;;
39958;SDS011;25639;53.634;9.880;2023-02-28T09:53:53;3.00;;;1.50;;
39958;SDS011;25639;53.634;9.880;2023-02-28T09:56:20;4.88;;;1.30;;
39958;SDS011;25639;53.634;9.880;2023-02-28T09:59:36;5.30;;;1.70;;
39958;SDS011;25639;53.634;9.880;2023-02-28T10:01:53;4.07;;;1.83;;
39958;SDS011;25639;53.634;9.880;2023-02-28T10:04:45;5.55;;;1.70;;
39958;SDS011;25639;53.634;9.880;2023-02-28T10:07:38;3.45;;;1.92;;
39958;SDS011;25639;53.634;9.880;2023-02-28T10:10:21;2.65;;;1.38;;
39958;SDS011;25639;53.634;9.880;2023-02-28T10:12:52;3.20;;;1.52;;
39958;SDS011;25639;53.634;9.880;2023-02-28T10:15:19;4.10;;;2.00;;
39958;SDS011;25639;53.634;9.880;2023-02-28T10:17:49;4.20;;;1.90;;
39958;SDS011;25639;53.634;9.880;2023-02-28T10:20:21;4.25;;;1.90;;
39958;SDS011;25639;53.634;9.880;2023-02-28T10:23:02;4.22;;;1.35;;
39958;SDS011;25639;53.634;9.880;2023-02-28T10:25:34;3.45;;;1.58;;
39958;SDS011;25639;53.634;9.880;2023-02-28T10:28:05;4.28;;;1.70;;
39958;SDS011;25639;53.634;9.880;2023-02-28T10:30:36;2.75;;;1.38;;
39958;SDS011;25639;53.634;9.880;2023-02-28T10:33:03;4.38;;;1.55;;
39958;SDS011;25639;53.634;9.880;2023-02-28T10:35:29;6.38;;;1.67;;
39958;SDS011;25639;53.634;9.880;2023-02-28T10:37:55;3.55;;;1.30;;
39958;SDS011;25639;53.634;9.880;2023-02-28T10:43:16;3.63;;;1.67;;
39958;SDS011;25639;53.634;9.880;2023-02-28T10:51:05;2.92;;;1.55;;
39958;SDS011;25639;53.634;9.880;2023-02-28T10:53:52;4.10;;;1.70;;
39958;SDS011;25639;53.634;9.880;2023-02-28T10:56:28;3.38;;;1.63;;
39958;SDS011;25639;53.634;9.880;2023-02-28T10:59:01;3.55;;;1.40;;
39958;SDS011;25639;53.634;9.880;2023-02-28T11:03:56;5.38;;;1.88;;
39958;SDS011;25639;53.634;9.880;2023-02-28T11:06:30;2.30;;;1.42;;
39958;SDS011;25639;53.634;9.880;2023-02-28T11:08:58;5.45;;;1.63;;
39958;SDS011;25639;53.634;9.880;2023-02-28T11:11:26;3.72;;;1.60;;
39958;SDS011;25639;53.634;9.880;2023-02-28T11:14:02;2.42;;;1.40;;
39958;SDS011;25639;53.634;9.880;2023-02-28T11:16:34;4.65;;;1.30;;
39958;SDS011;25639;53.634;9.880;2023-02-28T11:19:00;2.70;;;1.45;;
39958;SDS011;25639;53.634;9.880;2023-02-28T11:21:27;3.70;;;1.70;;
39958;SDS011;25639;53.634;9.880;2023-02-28T11:23:59;2.33;;;1.23;;
39958;SDS011;25639;53.634;9.880;2023-02-28T11:26:35;3.63;;;1.48;;
39958;SDS011;25639;53.634;9.880;2023-02-28T11:29:17;3.75;;;1.52;;
39958;SDS011;25639;53.634;9.880;2023-02-28T11:31:57;2.78;;;1.40;;
39958;SDS011;25639;53.634;9.880;2023-02-28T11:34:27;3.67;;;1.67;;
39958;SDS011;25639;53.634;9.880;2023-02-28T11:36:53;3.88;;;1.55;;
39958;SDS011;25639;53.634;9.880;2023-02-28T11:39:21;3.47;;;1.40;;
39958;SDS011;25639;53.634;9.880;2023-02-28T11:47:35;3.38;;;1.77;;
39958;SDS011;25639;53.634;9.880;2023-02-28T11:56:31;4.07;;;1.50;;
39958;SDS011;25639;53.634;9.880;2023-02-28T12:02:05;3.40;;;1.50;;
39958;SDS011;25639;53.634;9.880;2023-02-28T12:08:31;3.05;;;1.70;;
39958;SDS011;25639;53.634;9.880;2023-02-28T12:11:03;1.77;;;1.08;;
39958;SDS011;25639;53.634;9.880;2023-02-28T12:19:21;4.13;;;1.40;;
39958;SDS011;25639;53.634;9.880;2023-02-28T12:22:02;2.90;;;1.20;;
39958;SDS011;25639;53.634;9.880;2023-02-28T12:27:28;5.47;;;1.73;;
39958;SDS011;25639;53.634;9.880;2023-02-28T12:29:58;3.97;;;1.50;;
39958;SDS011;25639;53.634;9.880;2023-02-28T12:32:31;4.18;;;1.60;;
39958;SDS011;25639;53.634;9.880;2023-02-28T12:40:12;2.63;;;1.83;;
39958;SDS011;25639;53.634;9.880;2023-02-28T12:42:45;3.08;;;1.67;;
39958;SDS011;25639;53.634;9.880;2023-02-28T12:47:46;4.05;;;1.55;;
39958;SDS011;25639;53.634;9.880;2023-02-28T12:50:15;5.70;;;1.65;;
39958;SDS011;25639;53.634;9.880;2023-02-28T12:52:46;4.47;;;1.92;;
39958;SDS011;25639;53.634;9.880;2023-02-28T12:55:31;4.63;;;2.17;;
39958;SDS011;25639;53.634;9.880;2023-02-28T13:09:35;4.78;;;1.85;;
39958;SDS011;25639;53.634;9.880;2023-02-28T13:12:04;3.53;;;1.90;;
39958;SDS011;25639;53.634;9.880;2023-02-28T13:14:38;5.13;;;1.95;;
39958;SDS011;25639;53.634;9.880;2023-02-28T13:19:35;4.18;;;1.75;;
39958;SDS011;25639;53.634;9.880;2023-02-28T13:22:02;4.18;;;2.10;;
39958;SDS011;25639;53.634;9.880;2023-02-28T13:24:39;4.10;;;1.65;;
39958;SDS011;25639;53.634;9.880;2023-02-28T13:29:35;3.08;;;1.42;;
39958;SDS011;25639;53.634;9.880;2023-02-28T13:34:46;4.50;;;2.13;;
39958;SDS011;25639;53.634;9.880;2023-02-28T13:37:33;3.67;;;1.70;;
39958;SDS011;25639;53.634;9.880;2023-02-28T13:42:35;3.28;;;1.38;;
39958;SDS011;25639;53.634;9.880;2023-02-28T13:47:28;4.40;;;1.52;;
39958;SDS011;25639;53.634;9.880;2023-02-28T13:50:41;3.83;;;1.92;;
39958;SDS011;25639;53.634;9.880;2023-02-28T14:01:17;3.05;;;1.90;;
39958;SDS011;25639;53.634;9.880;2023-02-28T14:06:49;3.13;;;1.60;;
39958;SDS011;25639;53.634;9.880;2023-02-28T14:09:29;3.63;;;2.10;;
39958;SDS011;25639;53.634;9.880;2023-02-28T14:11:57;2.33;;;1.45;;
39958;SDS011;25639;53.634;9.880;2023-02-28T14:15:01;7.80;;;1.77;;
39958;SDS011;25639;53.634;9.880;2023-02-28T14:17:27;5.18;;;1.70;;
39958;SDS011;25639;53.634;9.880;2023-02-28T14:19:53;2.90;;;2.10;;
39958;SDS011;25639;53.634;9.880;2023-02-28T14:36:18;13.27;;;2.03;;
39958;SDS011;25639;53.634;9.880;2023-02-28T14:38:50;4.82;;;1.75;;
39958;SDS011;25639;53.634;9.880;2023-02-28T14:43:57;4.70;;;1.60;;
39958;SDS011;25639;53.634;9.880;2023-02-28T14:46:35;3.25;;;1.90;;
39958;SDS011;25639;53.634;9.880;2023-02-28T14:49:03;4.95;;;1.80;;
39958;SDS011;25639;53.634;9.880;2023-02-28T14:51:31;6.63;;;1.70;;
39958;SDS011;25639;53.634;9.880;2023-02-28T14:53:58;5.90;;;1.83;;
39958;SDS011;25639;53.634;9.880;2023-02-28T14:56:26;3.90;;;1.67;;
39958;SDS011;25639;53.634;9.880;2023-02-28T14:58:57;3.63;;;1.80;;
39958;SDS011;25639;53.634;9.880;2023-02-28T15:01:23;4.20;;;1.75;;
39958;SDS011;25639;53.634;9.880;2023-02-28T15:04:00;4.30;;;1.70;;
39958;SDS011;25639;53.634;9.880;2023-02-28T15:06:27;10.45;;;1.95;;
39958;SDS011;25639;53.634;9.880;2023-02-28T15:09:09;6.30;;;1.92;;
39958;SDS011;25639;53.634;9.880;2023-02-28T15:11:40;6.35;;;2.10;;
39958;SDS011;25639;53.634;9.880;2023-02-28T15:14:06;6.78;;;1.90;;
39958;SDS011;25639;53.634;9.880;2023-02-28T15:19:13;6.82;;;1.80;;
39958;SDS011;25639;53.634;9.880;2023-02-28T15:21:55;3.85;;;1.67;;
39958;SDS011;25639;53.634;9.880;2023-02-28T15:24:37;4.95;;;2.03;;
39958;SDS011;25639;53.634;9.880;2023-02-28T15:27:27;5.07;;;1.73;;
39958;SDS011;25639;53.634;9.880;2023-02-28T15:29:58;3.72;;;1.42;;
39958;SDS011;25639;53.634;9.880;2023-02-28T15:32:29;4.60;;;1.73;;
39958;SDS011;25639;53.634;9.880;2023-02-28T15:34:57;4.20;;;1.70;;
39958;SDS011;25639;53.634;9.880;2023-02-28T15:40:10;5.20;;;2.10;;
39958;SDS011;25639;53.634;9.880;2023-02-28T15:42:37;5.45;;;2.00;;
39958;SDS011;25639;53.634;9.880;2023-02-28T15:45:03;4.28;;;1.90;;
39958;SDS011;25639;53.634;9.880;2023-02-28T15:47:29;3.40;;;1.88;;
39958;SDS011;25639;53.634;9.880;2023-02-28T15:50:03;4.57;;;1.60;;
39958;SDS011;25639;53.634;9.880;2023-02-28T15:52:39;5.32;;;1.75;;
39958;SDS011;25639;53.634;9.880;2023-02-28T15:55:28;7.35;;;1.95;;
39958;SDS011;25639;53.634;9.880;2023-02-28T15:57:55;3.90;;;1.60;;
39958;SDS011;25639;53.634;9.880;2023-02-28T16:00:25;5.45;;;1.67;;
39958;SDS011;25639;53.634;9.880;2023-02-28T16:02:57;4.70;;;1.83;;
39958;SDS011;25639;53.634;9.880;2023-02-28T16:05:24;7.30;;;1.85;;
39958;SDS011;25639;53.634;9.880;2023-02-28T16:07:57;6.13;;;1.98;;
39958;SDS011;25639;53.634;9.880;2023-02-28T16:10:25;4.90;;;1.80;;
39958;SDS011;25639;53.634;9.880;2023-02-28T16:12:53;5.05;;;1.58;;
39958;SDS011;25639;53.634;9.880;2023-02-28T16:15:20;4.70;;;2.00;;
39958;SDS011;25639;53.634;9.880;2023-02-28T16:17:47;3.38;;;1.70;;
39958;SDS011;25639;53.634;9.880;2023-02-28T16:20:14;5.53;;;1.52;;
39958;SDS011;25639;53.634;9.880;2023-02-28T16:22:47;4.55;;;1.80;;
39958;SDS011;25639;53.634;9.880;2023-02-28T16:25:17;4.63;;;1.60;;
39958;SDS011;25639;53.634;9.880;2023-02-28T16:27:45;5.32;;;1.88;;
39958;SDS011;25639;53.634;9.880;2023-02-28T16:30:19;4.57;;;1.90;;
39958;SDS011;25639;53.634;9.880;2023-02-28T16:32:46;3.65;;;1.90;;
39958;SDS011;25639;53.634;9.880;2023-02-28T16:35:12;6.53;;;2.08;;
39958;SDS011;25639;53.634;9.880;2023-02-28T16:37:39;8.00;;;2.15;;
39958;SDS011;25639;53.634;9.880;2023-02-28T16:40:05;5.85;;;2.20;;
39958;SDS011;25639;53.634;9.880;2023-02-28T16:42:31;7.25;;;2.17;;
39958;SDS011;25639;53.634;9.880;2023-02-28T16:44:56;3.97;;;1.45;;
39958;SDS011;25639;53.634;9.880;2023-02-28T16:47:23;3.97;;;2.05;;
39958;SDS011;25639;53.634;9.880;2023-02-28T16:49:51;4.03;;;2.08;;
39958;SDS011;25639;53.634;9.880;2023-02-28T16:52:16;4.80;;;2.03;;
39958;SDS011;25639;53.634;9.880;2023-02-28T16:54:42;4.30;;;2.22;;
39958;SDS011;25639;53.634;9.880;2023-02-28T16:57:20;4.15;;;2.03;;
39958;SDS011;25639;53.634;9.880;2023-02-28T16:59:48;6.80;;;2.13;;
39958;SDS011;25639;53.634;9.880;2023-02-28T17:02:15;4.43;;;2.25;;
39958;SDS011;25639;53.634;9.880;2023-02-28T17:04:44;4.15;;;2.22;;
39958;SDS011;25639;53.634;9.880;2023-02-28T17:07:11;3.20;;;1.90;;
39958;SDS011;25639;53.634;9.880;2023-02-28T17:09:38;6.47;;;2.00;;
39958;SDS011;25639;53.634;9.880;2023-02-28T17:12:03;5.07;;;2.80;;
39958;SDS011;25639;53.634;9.880;2023-02-28T17:14:28;4.85;;;2.60;;
39958;SDS011;25639;53.634;9.880;2023-02-28T17:16:54;8.73;;;2.78;;
39958;SDS011;25639;53.634;9.880;2023-02-28T17:19:19;7.97;;;2.33;;